createdAt,value
2022-12-07T00:01:44.075Z,99243.62
2022-12-07T00:10:07.717Z,99241.75
2022-12-07T00:18:30.908Z,99237.17
2022-12-07T00:26:53.835Z,99244.26
2022-12-07T00:35:18.070Z,99249.27
2022-12-07T00:43:42.450Z,99245.48
2022-12-07T00:52:05.498Z,99240.73
2022-12-07T01:00:28.582Z,99235.15
2022-12-07T01:08:51.579Z,99228.89
2022-12-07T01:17:14.559Z,99221.91
2022-12-07T01:25:37.513Z,99221.73
2022-12-07T01:34:01.767Z,99220.25
2022-12-07T01:42:24.632Z,99220.92
2022-12-07T01:50:51.463Z,99214.51
2022-12-07T01:59:14.715Z,99214.04
2022-12-07T02:07:39.539Z,99213.89
2022-12-07T02:16:14.782Z,99211.89
2022-12-07T02:24:55.756Z,99210.55
2022-12-07T02:33:35.186Z,99212.41
2022-12-07T02:42:03.703Z,99203.44
2022-12-07T02:50:27.710Z,99197.12
2022-12-07T02:59:16.559Z,99197.91
2022-12-07T03:07:58.323Z,99192.52
2022-12-07T03:16:44.661Z,99188.82
2022-12-07T03:25:11.753Z,99177.27
2022-12-07T03:33:50.471Z,99168.89
2022-12-07T03:42:13.871Z,99165.11
2022-12-07T03:50:50.071Z,99165.54
2022-12-07T03:59:18.184Z,99162.40
2022-12-07T04:07:42.427Z,99160.55
2022-12-07T04:16:05.400Z,99155.88
2022-12-07T04:24:29.070Z,99153.44
2022-12-07T04:32:52.628Z,99148.05
2022-12-07T04:41:16.178Z,99142.26
2022-12-07T04:49:39.184Z,99142.69
2022-12-07T04:58:02.113Z,99142.52
2022-12-07T05:06:25.111Z,99137.29
2022-12-07T05:14:47.927Z,99135.42
2022-12-07T05:23:11.823Z,99133.46
2022-12-07T05:31:36.149Z,99131.91
2022-12-07T05:39:59.173Z,99125.20
2022-12-07T05:48:22.315Z,99129.70
2022-12-07T05:56:45.175Z,99132.55
2022-12-07T06:05:08.444Z,99134.52
2022-12-07T06:13:31.320Z,99132.61
2022-12-07T06:21:54.824Z,99128.25
2022-12-07T06:30:17.705Z,99134.31
2022-12-07T06:38:41.221Z,99130.87
2022-12-07T06:47:38.939Z,99133.70
2022-12-07T06:55:48.531Z,99134.72
2022-12-07T07:04:11.376Z,99130.27
2022-12-07T07:12:34.214Z,99133.80
2022-12-07T07:20:57.226Z,99131.14
2022-12-07T07:29:20.238Z,99124.59
2022-12-07T07:37:43.571Z,99121.23
2022-12-07T07:46:06.610Z,99119.91
2022-12-07T07:54:29.921Z,99126.35
2022-12-07T08:02:52.883Z,99127.42
2022-12-07T08:11:15.805Z,99133.71
2022-12-07T08:19:39.269Z,99134.07
2022-12-07T08:28:02.499Z,99138.27
2022-12-07T08:36:26.648Z,99142.17
2022-12-07T08:44:49.900Z,99141.13
2022-12-07T08:53:12.850Z,99140.33
2022-12-07T09:01:35.815Z,99137.54
2022-12-07T09:09:59.010Z,99141.92
2022-12-07T09:18:22.178Z,99138.97
2022-12-07T09:26:45.514Z,99133.55
2022-12-07T09:35:08.706Z,99130.25
2022-12-07T09:43:31.550Z,99128.46
2022-12-07T09:52:22.036Z,99125.81
2022-12-07T10:00:45.987Z,99123.33
2022-12-07T10:09:13.956Z,99111.20
2022-12-07T10:17:44.582Z,99115.80
2022-12-07T10:26:29.660Z,99118.95
2022-12-07T10:35:11.805Z,99120.52
2022-12-07T10:43:35.170Z,99117.83
2022-12-07T10:52:16.384Z,99119.39
2022-12-07T11:00:52.282Z,99119.98
2022-12-07T11:10:07.303Z,99118.73
2022-12-07T11:18:26.210Z,99107.80
2022-12-07T11:27:01.210Z,99109.65
2022-12-07T11:35:46.094Z,99105.21
2022-12-07T11:44:33.281Z,99105.91
2022-12-07T11:53:01.847Z,99105.86
2022-12-07T12:01:56.872Z,99104.29
2022-12-07T12:10:29.185Z,99100.66
2022-12-07T12:19:12.876Z,99099.81
2022-12-07T12:27:40.180Z,99093.18
2022-12-07T12:36:25.289Z,99094.04
2022-12-07T12:45:18.331Z,99089.29
2022-12-07T12:53:42.247Z,99078.63
2022-12-07T13:02:16.353Z,99079.13
2022-12-07T13:10:43.081Z,99074.35
2022-12-07T13:19:44.059Z,99072.75
2022-12-07T13:28:19.057Z,99076.84
2022-12-07T13:36:46.119Z,99083.45
2022-12-07T13:45:45.093Z,99072.50
2022-12-07T13:54:13.657Z,99077.41
2022-12-07T14:02:40.017Z,99080.34
2022-12-07T14:11:15.573Z,99080.70
2022-12-07T14:19:57.130Z,99084.31
2022-12-07T14:28:35.590Z,99085.88
2022-12-07T14:36:58.557Z,99085.84
2022-12-07T14:45:23.843Z,99082.80
2022-12-07T14:53:57.029Z,99085.44
2022-12-07T15:02:20.359Z,99090.80
2022-12-07T15:10:43.625Z,99095.73
2022-12-07T15:19:29.015Z,99095.81
2022-12-07T15:27:54.141Z,99091.33
2022-12-07T15:36:29.635Z,99088.17
2022-12-07T15:45:05.449Z,99083.43
2022-12-07T15:53:29.122Z,99081.66
2022-12-07T16:01:52.161Z,99086.50
2022-12-07T16:10:15.280Z,99083.27
2022-12-07T16:18:38.725Z,99080.41
2022-12-07T16:27:01.864Z,99073.39
2022-12-07T16:35:29.469Z,99079.52
2022-12-07T16:43:59.622Z,99077.58
2022-12-07T16:52:41.487Z,99074.65
2022-12-07T17:01:19.182Z,99074.81
2022-12-07T17:09:44.207Z,99070.36
2022-12-07T17:18:43.653Z,99077.77
2022-12-07T17:27:14.536Z,99076.89
2022-12-07T17:35:40.940Z,99074.09
2022-12-07T17:44:06.786Z,99084.17
2022-12-07T17:52:49.142Z,99086.77
2022-12-07T18:01:13.283Z,99092.31
2022-12-07T18:09:37.480Z,99092.96
2022-12-07T18:18:01.476Z,99087.79
2022-12-07T18:26:26.395Z,99087.21
2022-12-07T18:34:49.511Z,99086.81
2022-12-07T18:43:13.120Z,99075.92
2022-12-07T18:51:36.115Z,99081.46
2022-12-07T18:59:58.958Z,99085.04
2022-12-07T19:08:21.936Z,99089.20
2022-12-07T19:16:46.389Z,99093.79
2022-12-07T19:25:10.271Z,99097.52
2022-12-07T19:33:33.703Z,99093.48
2022-12-07T19:41:57.191Z,99094.75
2022-12-07T19:50:20.407Z,99094.57
2022-12-07T19:58:43.617Z,99102.98
2022-12-07T20:07:06.598Z,99114.60
2022-12-07T20:15:31.678Z,99120.23
